createdAt,value
2018-09-13T00:01:08.538Z,73.80
2018-09-13T00:03:35.987Z,74.00
2018-09-13T00:06:03.449Z,73.80
2018-09-13T00:08:30.966Z,74.00
2018-09-13T00:10:58.435Z,74.00
2018-09-13T00:13:25.968Z,74.20
2018-09-13T00:15:53.397Z,74.20
2018-09-13T00:18:20.833Z,74.20
2018-09-13T00:20:48.344Z,74.30
2018-09-13T00:23:15.809Z,74.30
2018-09-13T00:25:43.321Z,74.30
2018-09-13T00:28:10.808Z,74.40
2018-09-13T00:30:38.273Z,74.70
2018-09-13T00:33:06.056Z,74.70
2018-09-13T00:35:33.545Z,74.60
2018-09-13T00:38:01.039Z,74.70
2018-09-13T00:40:28.541Z,74.60
2018-09-13T00:42:56.080Z,74.50
2018-09-13T00:45:23.540Z,74.30
2018-09-13T00:47:51.053Z,74.50
2018-09-13T00:50:18.551Z,74.50
2018-09-13T00:52:46.021Z,74.70
2018-09-13T00:55:13.550Z,74.40
2018-09-13T00:57:41.024Z,74.80
2018-09-13T01:00:08.491Z,74.80
2018-09-13T01:02:36.369Z,75.30
2018-09-13T01:05:03.925Z,75.50
2018-09-13T01:07:31.412Z,75.60
2018-09-13T01:09:58.861Z,75.20
2018-09-13T01:12:26.321Z,75.20
2018-09-13T01:14:53.825Z,75.50
2018-09-13T01:17:21.327Z,75.60
2018-09-13T01:19:49.049Z,75.20
2018-09-13T01:22:16.704Z,75.30
2018-09-13T01:24:44.420Z,75.90
2018-09-13T01:27:11.876Z,76.00
2018-09-13T01:29:39.347Z,75.90
2018-09-13T01:32:06.899Z,75.30
2018-09-13T01:34:34.352Z,75.40
2018-09-13T01:37:01.791Z,75.10
2018-09-13T01:39:29.264Z,75.80
2018-09-13T01:41:56.757Z,75.80
2018-09-13T01:44:24.281Z,75.30
2018-09-13T01:46:51.715Z,75.40
2018-09-13T01:49:19.204Z,75.80
2018-09-13T01:51:46.694Z,76.30
2018-09-13T01:54:14.189Z,76.50
2018-09-13T01:56:41.667Z,76.20
2018-09-13T01:59:09.124Z,76.00
2018-09-13T02:01:36.639Z,76.30
2018-09-13T02:04:04.201Z,76.80
2018-09-13T02:06:31.687Z,76.60
2018-09-13T02:08:59.147Z,76.00
2018-09-13T02:11:26.624Z,76.80
2018-09-13T02:13:54.200Z,76.20
2018-09-13T02:16:21.750Z,76.50
2018-09-13T02:18:49.230Z,76.30
2018-09-13T02:21:16.700Z,76.00
2018-09-13T02:23:44.293Z,76.20
2018-09-13T02:26:11.811Z,76.30
2018-09-13T02:28:39.360Z,76.40
2018-09-13T02:31:06.875Z,76.30
2018-09-13T02:33:34.383Z,76.50
2018-09-13T02:36:01.880Z,76.10
2018-09-13T02:38:29.434Z,76.80
2018-09-13T02:40:56.940Z,76.60
2018-09-13T02:43:24.391Z,76.50
2018-09-13T02:45:51.876Z,76.10
2018-09-13T02:48:19.375Z,77.10
2018-09-13T02:50:46.859Z,77.60
2018-09-13T02:53:14.316Z,76.90
2018-09-13T02:55:41.781Z,77.50
2018-09-13T02:58:09.267Z,77.60
2018-09-13T03:00:36.727Z,77.50
2018-09-13T03:03:04.186Z,77.40
2018-09-13T03:05:31.671Z,77.20
2018-09-13T03:07:59.195Z,77.00
2018-09-13T03:10:26.810Z,76.70
2018-09-13T03:12:54.275Z,76.50
2018-09-13T03:15:21.740Z,77.40
2018-09-13T03:17:49.273Z,77.20
2018-09-13T03:20:16.821Z,76.90
2018-09-13T03:22:44.320Z,76.90
2018-09-13T03:25:11.807Z,76.80
2018-09-13T03:27:39.400Z,77.40
2018-09-13T03:30:06.910Z,77.70
2018-09-13T03:32:34.495Z,78.00
2018-09-13T03:35:01.973Z,77.60
2018-09-13T03:37:29.447Z,77.40
2018-09-13T03:39:56.965Z,77.80
2018-09-13T03:42:24.452Z,77.60
2018-09-13T03:44:51.961Z,77.70
2018-09-13T03:47:19.436Z,77.70
2018-09-13T03:49:46.975Z,76.60
2018-09-13T03:52:14.442Z,77.20
2018-09-13T03:54:41.909Z,76.90
2018-09-13T03:57:09.460Z,77.10
2018-09-13T03:59:36.899Z,76.70
2018-09-13T04:02:04.361Z,76.90
2018-09-13T04:04:31.845Z,77.20
2018-09-13T04:06:59.374Z,77.00
2018-09-13T04:09:26.862Z,77.00
2018-09-13T04:11:54.331Z,77.00
2018-09-13T04:14:21.856Z,77.00
2018-09-13T04:16:49.304Z,77.10
2018-09-13T04:19:16.808Z,76.90
2018-09-13T04:21:44.293Z,76.80
2018-09-13T04:24:11.749Z,77.30
2018-09-13T04:26:39.213Z,77.50
2018-09-13T04:29:06.744Z,77.20
2018-09-13T04:31:34.228Z,76.80
2018-09-13T04:34:01.747Z,76.80
2018-09-13T04:36:29.181Z,77.80
2018-09-13T04:38:56.748Z,77.50
2018-09-13T04:41:24.203Z,77.50
2018-09-13T04:43:51.714Z,77.30
2018-09-13T04:46:19.172Z,76.90
2018-09-13T04:48:46.657Z,77.10
2018-09-13T04:51:14.123Z,77.20
2018-09-13T04:53:41.670Z,76.90
2018-09-13T04:56:09.189Z,76.90
2018-09-13T04:58:36.680Z,77.70
2018-09-13T05:01:04.176Z,77.80
2018-09-13T05:03:31.612Z,77.10
2018-09-13T05:05:59.034Z,77.50
2018-09-13T05:08:26.419Z,77.20
2018-09-13T05:10:53.816Z,77.10
2018-09-13T05:13:21.221Z,77.50
2018-09-13T05:15:48.782Z,77.50
2018-09-13T05:18:16.190Z,77.70
2018-09-13T05:20:43.630Z,77.40
2018-09-13T05:23:11.045Z,77.60
2018-09-13T05:25:38.548Z,77.80
2018-09-13T05:28:06.072Z,77.50
2018-09-13T05:30:33.468Z,78.40
2018-09-13T05:33:00.912Z,77.70
2018-09-13T05:35:28.362Z,77.60
2018-09-13T05:37:56.225Z,77.70
2018-09-13T05:40:23.781Z,78.00
2018-09-13T05:42:51.260Z,77.40
2018-09-13T05:45:18.874Z,78.20
2018-09-13T05:47:46.351Z,77.80
2018-09-13T05:50:13.788Z,78.20
2018-09-13T05:52:41.199Z,78.20
2018-09-13T05:55:08.596Z,78.00
2018-09-13T05:57:36.046Z,77.80
2018-09-13T06:00:04.183Z,78.50
2018-09-13T06:02:31.722Z,78.40
2018-09-13T06:04:59.094Z,78.50
2018-09-13T06:07:26.520Z,77.80
2018-09-13T06:09:54.265Z,78.20
2018-09-13T06:12:21.736Z,77.90
2018-09-13T06:14:49.244Z,78.80
2018-09-13T06:17:16.703Z,78.30
2018-09-13T06:19:44.130Z,79.10
2018-09-13T06:22:12.121Z,79.30
2018-09-13T06:24:39.710Z,78.50
2018-09-13T06:27:07.321Z,78.00
2018-09-13T06:29:34.974Z,78.80
2018-09-13T06:32:02.528Z,77.70
2018-09-13T06:34:30.008Z,78.00
2018-09-13T06:36:57.503Z,78.50
2018-09-13T06:39:25.094Z,78.20
2018-09-13T06:41:52.557Z,77.90
2018-09-13T06:44:19.935Z,77.70
2018-09-13T06:46:47.322Z,78.00
2018-09-13T06:49:14.929Z,77.90
2018-09-13T06:51:42.506Z,77.60
2018-09-13T06:54:10.046Z,77.50
2018-09-13T06:56:37.506Z,77.60
2018-09-13T06:59:05.004Z,77.60
2018-09-13T07:01:32.530Z,77.40
2018-09-13T07:04:00.063Z,77.20
2018-09-13T07:06:27.552Z,77.40
2018-09-13T07:08:55.013Z,77.20
2018-09-13T07:11:22.589Z,77.40
2018-09-13T07:13:50.060Z,77.20
2018-09-13T07:16:17.534Z,77.00
2018-09-13T07:18:45.105Z,76.40
2018-09-13T07:21:12.590Z,76.90
2018-09-13T07:23:40.152Z,76.60
2018-09-13T07:26:07.595Z,76.50
2018-09-13T07:28:35.076Z,75.80
2018-09-13T07:31:02.720Z,76.20
2018-09-13T07:33:30.236Z,75.60
2018-09-13T07:35:57.740Z,76.20
2018-09-13T07:38:25.264Z,76.00
2018-09-13T07:40:52.799Z,76.10
2018-09-13T07:43:20.242Z,75.80
2018-09-13T07:45:47.871Z,75.90
2018-09-13T07:48:15.366Z,75.80
2018-09-13T07:50:42.859Z,75.30
2018-09-13T07:53:10.310Z,75.70
2018-09-13T07:55:37.846Z,75.40
2018-09-13T07:58:05.350Z,75.40
2018-09-13T08:00:32.854Z,75.30
2018-09-13T08:03:00.358Z,75.30
2018-09-13T08:05:28.096Z,74.90
2018-09-13T08:07:55.686Z,73.90
2018-09-13T08:10:23.115Z,73.50
2018-09-13T08:12:50.524Z,74.80
2018-09-13T08:15:17.940Z,74.60
2018-09-13T08:17:45.542Z,74.00
2018-09-13T08:20:12.984Z,74.90
2018-09-13T08:22:40.394Z,74.80
2018-09-13T08:25:07.816Z,72.90
2018-09-13T08:27:35.253Z,75.30
2018-09-13T08:30:02.749Z,74.10
2018-09-13T08:35:00.203Z,73.50
2018-09-13T08:37:27.346Z,74.40
2018-09-13T08:39:54.742Z,73.90
2018-09-13T08:42:22.275Z,74.00
2018-09-13T08:44:49.904Z,73.20
2018-09-13T08:47:17.304Z,73.60
2018-09-13T08:49:44.971Z,74.00
2018-09-13T08:52:12.407Z,74.00
2018-09-13T08:54:39.782Z,74.00
2018-09-13T08:57:07.184Z,72.90
2018-09-13T08:59:34.604Z,72.50
2018-09-13T09:02:02.460Z,72.40
2018-09-13T09:04:29.863Z,73.00
2018-09-13T09:06:57.300Z,73.10
2018-09-13T09:09:24.727Z,71.80
2018-09-13T09:11:52.176Z,73.10
2018-09-13T09:14:19.513Z,73.30
2018-09-13T09:16:46.947Z,73.00
2018-09-13T09:19:14.366Z,72.60
2018-09-13T09:21:42.126Z,70.30
2018-09-13T09:24:09.518Z,71.40
2018-09-13T09:26:36.908Z,71.40
2018-09-13T09:29:04.457Z,70.80
2018-09-13T09:31:31.825Z,69.60
2018-09-13T09:33:59.268Z,70.70
2018-09-13T09:36:26.672Z,70.20
2018-09-13T09:38:54.142Z,69.90
2018-09-13T09:41:21.769Z,71.30
2018-09-13T09:43:49.123Z,70.60
2018-09-13T09:46:16.517Z,71.30
2018-09-13T09:48:44.014Z,70.30
2018-09-13T09:51:11.425Z,69.10
2018-09-13T09:53:38.828Z,68.40
2018-09-13T09:56:06.260Z,68.40
2018-09-13T09:58:33.678Z,68.10
2018-09-13T10:01:06.813Z,70.00
2018-09-13T10:03:34.254Z,68.90
2018-09-13T10:06:01.700Z,69.60
2018-09-13T10:08:29.108Z,69.80
2018-09-13T10:10:56.503Z,68.50
2018-09-13T10:13:23.868Z,68.20
2018-09-13T10:15:56.842Z,66.30
2018-09-13T10:18:29.930Z,66.50
2018-09-13T10:21:03.203Z,68.20
2018-09-13T10:23:36.418Z,66.30
2018-09-13T10:26:09.523Z,64.20
2018-09-13T10:28:42.846Z,64.20
2018-09-13T10:31:15.993Z,64.80
2018-09-13T10:33:49.160Z,64.80
2018-09-13T10:36:22.540Z,66.40
2018-09-13T10:38:55.693Z,65.60
2018-09-13T10:41:28.779Z,65.90
2018-09-13T10:44:01.725Z,67.40
2018-09-13T10:46:30.170Z,67.90
2018-09-13T10:49:03.290Z,66.40
2018-09-13T10:51:36.279Z,67.00
2018-09-13T10:54:28.351Z,64.10
2018-09-13T10:56:58.353Z,62.00
2018-09-13T10:59:25.768Z,60.10
2018-09-13T11:01:53.197Z,61.50
2018-09-13T11:04:20.675Z,63.60
2018-09-13T11:06:48.056Z,65.10
2018-09-13T11:09:15.512Z,65.10
2018-09-13T11:11:43.382Z,65.30
2018-09-13T11:14:16.450Z,64.80
2018-09-13T11:16:43.951Z,63.50
2018-09-13T11:19:11.436Z,64.70
2018-09-13T11:21:38.885Z,62.00
2018-09-13T11:24:07.305Z,61.90
2018-09-13T11:26:34.696Z,64.20
2018-09-13T11:29:02.098Z,63.00
2018-09-13T11:31:29.621Z,60.50
2018-09-13T11:33:57.043Z,61.10
2018-09-13T11:36:24.625Z,60.40
2018-09-13T11:38:52.378Z,59.70
2018-09-13T11:41:19.772Z,61.40
2018-09-13T11:43:47.490Z,62.80
2018-09-13T11:46:15.165Z,60.40
2018-09-13T11:48:42.995Z,58.00
2018-09-13T11:51:10.492Z,60.60
2018-09-13T11:53:37.924Z,57.10
2018-09-13T11:56:06.117Z,59.80
2018-09-13T11:58:33.516Z,60.10
2018-09-13T12:01:00.916Z,56.10
2018-09-13T12:03:28.321Z,58.00
2018-09-13T12:05:55.748Z,58.00
2018-09-13T12:08:23.135Z,59.70
2018-09-13T12:10:50.548Z,58.40
2018-09-13T12:13:17.958Z,57.80
2018-09-13T12:15:45.378Z,57.40
2018-09-13T12:18:12.839Z,59.20
2018-09-13T12:20:40.235Z,58.30
2018-09-13T12:23:07.658Z,56.70
2018-09-13T12:25:35.048Z,54.50
2018-09-13T12:28:02.462Z,56.80
2018-09-13T12:30:29.928Z,53.00
2018-09-13T12:32:57.391Z,57.20
2018-09-13T12:35:24.771Z,53.80
2018-09-13T12:37:52.185Z,55.00
2018-09-13T12:40:19.600Z,57.00
2018-09-13T12:42:47.003Z,55.10
2018-09-13T12:45:14.409Z,58.30
2018-09-13T12:47:41.824Z,57.10
2018-09-13T12:50:09.225Z,56.00
2018-09-13T12:52:37.109Z,56.50
2018-09-13T12:55:04.601Z,54.30
2018-09-13T12:57:32.020Z,53.40
2018-09-13T12:59:59.528Z,53.60
2018-09-13T13:02:27.183Z,52.70
2018-09-13T13:04:54.588Z,53.20
2018-09-13T13:07:22.041Z,52.90
2018-09-13T13:09:49.461Z,54.30
2018-09-13T13:12:16.888Z,53.10
2018-09-13T13:14:44.387Z,51.80
2018-09-13T13:17:12.288Z,53.30
2018-09-13T13:19:39.701Z,53.90
2018-09-13T13:22:07.160Z,52.50
2018-09-13T13:24:34.568Z,52.50
2018-09-13T13:27:02.056Z,52.80
2018-09-13T13:29:29.412Z,52.00
2018-09-13T13:31:57.126Z,49.30
2018-09-13T13:34:24.753Z,51.00
2018-09-13T13:36:52.120Z,52.40
2018-09-13T13:39:19.559Z,53.70
2018-09-13T13:41:47.010Z,53.40
2018-09-13T13:44:14.945Z,52.10
2018-09-13T13:46:42.363Z,53.70
2018-09-13T13:49:09.946Z,53.60
2018-09-13T13:51:37.550Z,53.20
2018-09-13T13:54:04.960Z,53.60
2018-09-13T13:56:32.382Z,52.60
2018-09-13T13:58:59.812Z,52.10
2018-09-13T14:01:27.389Z,55.70
2018-09-13T14:03:54.908Z,54.50
2018-09-13T14:06:22.303Z,53.80
2018-09-13T14:08:49.747Z,49.50
2018-09-13T14:11:17.172Z,52.40
2018-09-13T14:13:44.619Z,49.50
2018-09-13T14:16:12.132Z,51.50
2018-09-13T14:18:39.572Z,51.80
2018-09-13T14:21:06.967Z,51.40
2018-09-13T14:23:34.368Z,52.80
2018-09-13T14:26:01.809Z,54.70
2018-09-13T14:28:29.304Z,53.40
2018-09-13T14:30:56.733Z,54.10
2018-09-13T14:33:24.346Z,50.70
2018-09-13T14:35:51.712Z,52.50
2018-09-13T14:38:19.117Z,53.80
2018-09-13T14:40:50.463Z,53.10
2018-09-13T14:43:18.310Z,54.30
2018-09-13T14:45:45.788Z,53.10
2018-09-13T14:48:13.180Z,54.60
2018-09-13T14:50:40.597Z,54.00
2018-09-13T14:53:08.013Z,52.10
2018-09-13T14:55:35.418Z,53.00
2018-09-13T14:58:02.840Z,54.30
2018-09-13T15:00:30.232Z,53.70
2018-09-13T15:02:57.751Z,54.40
2018-09-13T15:05:25.142Z,54.30
2018-09-13T15:07:52.569Z,55.10
2018-09-13T15:10:19.965Z,54.20
2018-09-13T15:12:47.471Z,52.70
2018-09-13T15:15:14.967Z,53.20
2018-09-13T15:17:42.391Z,53.50
2018-09-13T15:20:09.855Z,54.40
2018-09-13T15:22:37.329Z,53.10
2018-09-13T15:25:04.880Z,54.40
2018-09-13T15:27:32.340Z,55.00
2018-09-13T15:29:59.749Z,55.60
2018-09-13T15:32:27.148Z,54.30
2018-09-13T15:34:54.525Z,55.10
2018-09-13T15:37:21.912Z,54.50
2018-09-13T15:39:49.425Z,54.90
2018-09-13T15:42:16.840Z,54.20
2018-09-13T15:44:44.304Z,56.30
2018-09-13T15:47:11.731Z,54.00
2018-09-13T15:49:39.116Z,54.60
2018-09-13T15:52:06.527Z,54.70
2018-09-13T15:54:33.887Z,55.00
2018-09-13T15:57:01.307Z,54.80
2018-09-13T15:59:28.750Z,54.60
2018-09-13T16:01:56.218Z,55.70
2018-09-13T16:04:23.628Z,55.30
2018-09-13T16:06:51.016Z,54.70
2018-09-13T16:09:18.414Z,56.00
2018-09-13T16:11:45.848Z,54.90
2018-09-13T16:14:13.260Z,55.70
2018-09-13T16:16:40.663Z,55.20
2018-09-13T16:19:08.122Z,55.30
2018-09-13T16:21:35.550Z,57.00
2018-09-13T16:24:03.520Z,56.80
2018-09-13T16:26:30.977Z,55.20
2018-09-13T16:28:58.568Z,57.10
2018-09-13T16:31:26.009Z,56.50
2018-09-13T16:33:53.545Z,56.20
2018-09-13T16:36:23.118Z,56.80
2018-09-13T16:38:56.093Z,57.10
2018-09-13T16:41:29.356Z,56.70
2018-09-13T16:43:58.041Z,56.80
2018-09-13T16:46:31.506Z,57.40
2018-09-13T16:48:58.895Z,56.70
2018-09-13T16:51:26.393Z,57.60
2018-09-13T16:53:53.816Z,56.50
2018-09-13T16:56:21.221Z,57.10
2018-09-13T16:58:48.645Z,57.20
2018-09-13T17:01:16.095Z,56.70
2018-09-13T17:03:43.851Z,57.70
2018-09-13T17:06:11.343Z,57.70
2018-09-13T17:08:38.753Z,57.50
2018-09-13T17:11:06.164Z,57.50
2018-09-13T17:13:33.574Z,58.10
2018-09-13T17:16:00.972Z,58.10
2018-09-13T17:18:28.385Z,57.40
2018-09-13T17:20:55.768Z,57.90
2018-09-13T17:23:23.161Z,58.10
2018-09-13T17:25:50.579Z,58.00
2018-09-13T17:28:17.991Z,58.30
2018-09-13T17:30:45.392Z,57.50
2018-09-13T17:33:12.832Z,57.80
2018-09-13T17:35:40.239Z,58.50
2018-09-13T17:38:07.653Z,57.70
2018-09-13T17:40:35.060Z,58.60
2018-09-13T17:43:02.467Z,58.10
2018-09-13T17:45:29.896Z,58.10
2018-09-13T17:47:57.345Z,58.20
2018-09-13T17:50:24.998Z,58.10
2018-09-13T17:52:52.452Z,57.90
2018-09-13T17:55:20.241Z,58.20
2018-09-13T17:57:47.703Z,58.60
2018-09-13T18:00:15.427Z,58.50
2018-09-13T18:02:42.816Z,59.00
2018-09-13T18:05:10.204Z,59.10
2018-09-13T18:07:37.960Z,59.10
2018-09-13T18:10:05.633Z,58.90
2018-09-13T18:12:33.051Z,58.90
2018-09-13T18:15:00.488Z,59.20
2018-09-13T18:17:28.215Z,59.20
2018-09-13T18:19:55.619Z,59.50
2018-09-13T18:22:23.019Z,59.50
2018-09-13T18:24:50.403Z,59.60
2018-09-13T18:27:18.119Z,59.70
2018-09-13T18:29:45.908Z,59.60
2018-09-13T18:32:13.382Z,59.60
2018-09-13T18:34:40.803Z,60.00
2018-09-13T18:37:08.204Z,59.90
2018-09-13T18:39:35.606Z,60.20
2018-09-13T18:42:02.996Z,60.50
2018-09-13T18:44:30.410Z,60.60
2018-09-13T18:46:57.829Z,60.60
2018-09-13T18:49:25.281Z,60.80
2018-09-13T18:51:52.705Z,61.20
2018-09-13T18:54:20.240Z,61.00
2018-09-13T18:56:47.548Z,61.10
2018-09-13T18:59:14.956Z,61.30
2018-09-13T19:01:42.383Z,61.60
2018-09-13T19:04:09.771Z,61.90
2018-09-13T19:06:37.182Z,62.00
2018-09-13T19:09:06.626Z,61.70
2018-09-13T19:11:34.096Z,61.40
2018-09-13T19:14:01.525Z,62.10
2018-09-13T19:16:28.926Z,61.90
2018-09-13T19:18:56.322Z,62.10
2018-09-13T19:21:23.695Z,62.60
2018-09-13T19:23:51.153Z,62.40
2018-09-13T19:26:18.495Z,62.80
2018-09-13T19:28:45.920Z,62.60
2018-09-13T19:31:13.328Z,62.80
2018-09-13T19:33:40.710Z,63.00
2018-09-13T19:36:08.082Z,62.60
2018-09-13T19:38:35.479Z,62.90
2018-09-13T19:41:02.900Z,63.10
2018-09-13T19:43:30.312Z,63.40
2018-09-13T19:45:57.656Z,63.20
2018-09-13T19:48:25.033Z,63.20
2018-09-13T19:50:52.516Z,63.20
2018-09-13T19:53:19.832Z,62.80
2018-09-13T19:55:47.248Z,63.40
2018-09-13T19:58:14.995Z,63.80
2018-09-13T20:00:42.371Z,64.40
2018-09-13T20:03:09.757Z,64.10
2018-09-13T20:05:37.151Z,64.20
2018-09-13T20:08:04.975Z,64.70
2018-09-13T20:10:32.385Z,65.20
2018-09-13T20:12:59.759Z,64.60
2018-09-13T20:15:27.144Z,64.80
2018-09-13T20:17:54.512Z,64.60
2018-09-13T20:20:21.977Z,64.40
2018-09-13T20:22:49.402Z,64.60
2018-09-13T20:25:16.802Z,65.10
2018-09-13T20:27:44.265Z,65.40
2018-09-13T20:30:11.757Z,65.10
2018-09-13T20:32:39.212Z,65.10
2018-09-13T20:35:06.618Z,65.40
2018-09-13T20:37:34.217Z,65.20
2018-09-13T20:40:01.771Z,65.50
2018-09-13T20:42:29.265Z,66.10
2018-09-13T20:44:56.650Z,66.80
2018-09-13T20:47:24.044Z,66.20
2018-09-13T20:49:51.440Z,66.10
2018-09-13T20:52:19.498Z,66.30
2018-09-13T20:54:46.996Z,65.50
2018-09-13T20:57:14.661Z,65.40
2018-09-13T20:59:42.093Z,66.70
2018-09-13T21:02:09.512Z,67.70
2018-09-13T21:04:36.897Z,67.70
2018-09-13T21:07:04.288Z,67.00
2018-09-13T21:09:31.723Z,67.10
2018-09-13T21:11:59.111Z,67.10
2018-09-13T21:14:26.479Z,66.40
2018-09-13T21:16:53.906Z,66.50
2018-09-13T21:19:21.296Z,66.70
2018-09-13T21:21:48.667Z,66.70
2018-09-13T21:24:16.953Z,66.80
2018-09-13T21:26:44.448Z,66.80
2018-09-13T21:29:11.867Z,67.20
2018-09-13T21:31:39.246Z,67.20
2018-09-13T21:34:06.664Z,67.80
2018-09-13T21:36:34.068Z,67.30
2018-09-13T21:39:01.629Z,68.00
2018-09-13T21:41:29.068Z,67.60
2018-09-13T21:43:56.535Z,68.00
2018-09-13T21:46:23.927Z,68.30
2018-09-13T21:48:54.243Z,67.80
2018-09-13T21:51:21.661Z,68.10
2018-09-13T21:53:49.079Z,67.80
2018-09-13T21:56:16.475Z,68.80
2018-09-13T21:58:43.917Z,69.10
2018-09-13T22:01:13.433Z,69.40
2018-09-13T22:03:40.832Z,68.30
2018-09-13T22:06:08.278Z,67.90
2018-09-13T22:08:36.364Z,68.30
2018-09-13T22:11:03.778Z,68.70
2018-09-13T22:13:32.126Z,68.70
2018-09-13T22:16:00.491Z,69.40
2018-09-13T22:18:27.952Z,68.70
2018-09-13T22:20:55.458Z,68.50
2018-09-13T22:23:22.875Z,69.20
2018-09-13T22:25:50.741Z,68.50
2018-09-13T22:28:18.155Z,69.20
2018-09-13T22:30:45.604Z,68.40
2018-09-13T22:33:13.027Z,68.50
2018-09-13T22:35:40.417Z,69.40
2018-09-13T22:38:09.425Z,70.00
2018-09-13T22:40:36.880Z,69.40
2018-09-13T22:43:04.275Z,69.50
2018-09-13T22:45:31.753Z,69.80
2018-09-13T22:47:59.141Z,69.20
2018-09-13T22:50:26.555Z,69.30
2018-09-13T22:52:54.004Z,69.70
2018-09-13T22:55:21.446Z,70.00
2018-09-13T22:57:48.926Z,69.10
2018-09-13T23:00:16.325Z,69.10
2018-09-13T23:02:49.472Z,69.50
2018-09-13T23:05:17.972Z,69.10
2018-09-13T23:07:45.480Z,69.80
2018-09-13T23:10:12.902Z,69.60
2018-09-13T23:12:40.297Z,70.30
2018-09-13T23:15:07.699Z,70.30
2018-09-13T23:17:35.203Z,70.20
2018-09-13T23:20:02.549Z,70.10
2018-09-13T23:22:29.936Z,69.60
2018-09-13T23:24:57.376Z,70.10
2018-09-13T23:27:24.791Z,70.50
2018-09-13T23:29:52.180Z,70.20
2018-09-13T23:32:19.596Z,70.10
2018-09-13T23:34:47.015Z,70.30
2018-09-13T23:37:14.409Z,70.60
2018-09-13T23:39:42.141Z,70.20
2018-09-13T23:42:09.277Z,70.20
2018-09-13T23:44:37.506Z,70.20
2018-09-13T23:47:04.905Z,71.30
2018-09-13T23:49:32.318Z,71.10
2018-09-13T23:51:59.701Z,70.60
2018-09-13T23:54:27.094Z,71.10
2018-09-13T23:56:54.501Z,70.80
2018-09-13T23:59:21.884Z,71.00
